createdAt,value
2023-04-16T00:01:27.497Z,102320.38
2023-04-16T00:03:54.818Z,102321.44
2023-04-16T00:06:21.599Z,102326.50
2023-04-16T00:08:48.226Z,102304.63
2023-04-16T00:11:15.421Z,102329.31
2023-04-16T00:13:42.089Z,102311.75
2023-04-16T00:16:08.763Z,102324.75
2023-04-16T00:18:35.800Z,102327.19
2023-04-16T00:21:02.421Z,102328.00
2023-04-16T00:23:29.133Z,102328.19
2023-04-16T00:25:59.844Z,102312.53
2023-04-16T00:28:27.732Z,102317.91
2023-04-16T00:30:54.973Z,102322.97
2023-04-16T00:33:21.774Z,102316.88
2023-04-16T00:35:48.759Z,102316.22
2023-04-16T00:38:15.403Z,102321.09
2023-04-16T00:40:42.018Z,102321.44
2023-04-16T00:43:08.711Z,102315.09
2023-04-16T00:45:35.962Z,102309.16
2023-04-16T00:48:03.107Z,102310.22
2023-04-16T00:50:30.044Z,102326.56
2023-04-16T00:52:57.075Z,102321.53
2023-04-16T00:55:23.687Z,102328.63
2023-04-16T00:57:50.441Z,102321.34
2023-04-16T01:00:17.299Z,102318.00
2023-04-16T01:02:44.052Z,102326.69
2023-04-16T01:05:10.736Z,102323.34
2023-04-16T01:07:37.238Z,102328.63
2023-04-16T01:10:04.352Z,102322.84
2023-04-16T01:12:31.186Z,102323.59
2023-04-16T01:14:57.977Z,102318.47
2023-04-16T01:17:24.642Z,102313.03
2023-04-16T01:19:51.237Z,102316.47
2023-04-16T01:22:17.792Z,102309.06
2023-04-16T01:24:45.217Z,102322.84
2023-04-16T01:27:11.794Z,102314.91
2023-04-16T01:29:38.324Z,102320.25
2023-04-16T01:32:05.002Z,102326.44
2023-04-16T01:34:36.119Z,102281.63
2023-04-16T01:37:06.921Z,102302.75
2023-04-16T01:39:39.568Z,102314.09
2023-04-16T01:42:19.227Z,102276.44
2023-04-16T01:44:52.555Z,102271.25
2023-04-16T01:47:19.240Z,102272.75
2023-04-16T01:49:48.374Z,102274.56
2023-04-16T01:52:19.857Z,102314.09
2023-04-16T01:54:46.915Z,102294.88
2023-04-16T01:57:13.732Z,102289.28
2023-04-16T01:59:42.678Z,102315.72
2023-04-16T02:02:25.373Z,102289.16
2023-04-16T02:05:04.860Z,102315.72
2023-04-16T02:07:36.681Z,102278.16
2023-04-16T02:10:07.286Z,102280.00
2023-04-16T02:12:33.881Z,102301.44
2023-04-16T02:15:33.016Z,102295.94
2023-04-16T02:18:06.753Z,102268.47
2023-04-16T02:20:46.105Z,102288.72
2023-04-16T02:23:15.174Z,102293.97
2023-04-16T02:25:52.031Z,102272.09
2023-04-16T02:28:21.666Z,102287.44
2023-04-16T02:30:48.403Z,102294.91
2023-04-16T02:33:22.026Z,102284.59
2023-04-16T02:35:48.896Z,102282.56
2023-04-16T02:38:18.151Z,102276.63
2023-04-16T02:40:44.819Z,102307.22
2023-04-16T02:43:14.716Z,102324.03
2023-04-16T02:45:41.385Z,102278.50
2023-04-16T02:48:10.383Z,102267.03
2023-04-16T02:50:40.173Z,102286.97
2023-04-16T02:53:10.850Z,102297.66
2023-04-16T02:55:55.491Z,102326.50
2023-04-16T02:58:26.110Z,102282.81
2023-04-16T03:01:25.258Z,102285.09
2023-04-16T03:03:56.747Z,102308.78
2023-04-16T03:06:32.709Z,102315.78
2023-04-16T03:08:59.399Z,102328.00
2023-04-16T03:11:48.358Z,102308.84
2023-04-16T03:14:23.934Z,102298.16
2023-04-16T03:16:50.650Z,102327.06
2023-04-16T03:19:17.441Z,102327.13
2023-04-16T03:21:44.165Z,102303.63
2023-04-16T03:24:14.055Z,102323.53
2023-04-16T03:26:40.852Z,102322.63
2023-04-16T03:29:15.205Z,102313.72
2023-04-16T03:31:44.669Z,102297.44
2023-04-16T03:34:21.681Z,102331.47
2023-04-16T03:36:50.416Z,102324.47
2023-04-16T03:39:20.657Z,102318.97
2023-04-16T03:41:48.755Z,102297.78
2023-04-16T03:44:15.778Z,102303.75
2023-04-16T03:46:46.906Z,102335.16
2023-04-16T03:49:17.515Z,102333.63
2023-04-16T03:51:44.476Z,102312.66
2023-04-16T03:54:15.313Z,102312.44
2023-04-16T03:56:44.203Z,102304.69
2023-04-16T03:59:31.274Z,102300.44
2023-04-16T04:02:03.809Z,102322.19
2023-04-16T04:04:48.294Z,102319.25
2023-04-16T04:07:23.838Z,102313.84
2023-04-16T04:09:56.093Z,102339.22
2023-04-16T04:12:22.759Z,102321.38
2023-04-16T04:14:57.046Z,102339.09
2023-04-16T04:17:26.242Z,102319.78
2023-04-16T04:20:01.386Z,102323.38
2023-04-16T04:22:28.482Z,102342.66
2023-04-16T04:24:55.195Z,102362.66
2023-04-16T04:27:28.946Z,102328.91
2023-04-16T04:29:56.938Z,102343.03
2023-04-16T04:32:29.366Z,102324.69
2023-04-16T04:34:56.348Z,102376.63
2023-04-16T04:37:26.839Z,102327.56
2023-04-16T04:39:55.958Z,102328.91
2023-04-16T04:42:31.472Z,102370.25
2023-04-16T04:45:08.042Z,102372.91
2023-04-16T04:47:59.000Z,102393.06
2023-04-16T04:50:32.822Z,102359.81
2023-04-16T04:53:05.329Z,102377.00
2023-04-16T04:55:42.314Z,102360.53
2023-04-16T04:58:14.558Z,102341.63
2023-04-16T05:00:42.816Z,102351.94
2023-04-16T05:03:19.293Z,102343.03
2023-04-16T05:05:46.027Z,102349.72
2023-04-16T05:08:20.745Z,102362.19
2023-04-16T05:10:54.895Z,102347.16
2023-04-16T05:13:32.100Z,102364.09
2023-04-16T05:15:58.827Z,102375.25
2023-04-16T05:18:31.198Z,102380.78
2023-04-16T05:20:59.891Z,102406.38
2023-04-16T05:23:26.559Z,102375.66
2023-04-16T05:26:00.787Z,102353.13
2023-04-16T05:31:24.895Z,102352.69
2023-04-16T05:33:56.688Z,102359.41
2023-04-16T05:36:45.864Z,102393.69
2023-04-16T05:39:32.559Z,102368.66
2023-04-16T05:42:00.738Z,102378.94
2023-04-16T05:47:39.281Z,102355.25
2023-04-16T05:50:33.329Z,102362.28
2023-04-16T05:53:05.881Z,102381.59
2023-04-16T05:55:38.864Z,102375.88
2023-04-16T05:58:25.917Z,102387.75
2023-04-16T06:01:03.152Z,102368.47
2023-04-16T06:03:30.194Z,102405.03
2023-04-16T06:06:01.735Z,102371.03
2023-04-16T06:08:37.572Z,102378.63
2023-04-16T06:11:04.554Z,102404.41
2023-04-16T06:13:36.454Z,102412.03
2023-04-16T06:16:06.367Z,102405.53
2023-04-16T06:18:37.676Z,102395.38
2023-04-16T06:21:11.992Z,102426.28
2023-04-16T06:23:55.223Z,102412.22
2023-04-16T06:26:53.303Z,102432.47
2023-04-16T06:29:33.684Z,102377.28
2023-04-16T06:32:12.494Z,102431.16
2023-04-16T06:34:41.351Z,102405.25
2023-04-16T06:37:10.507Z,102400.63
2023-04-16T06:39:42.162Z,102417.25
2023-04-16T06:42:16.368Z,102455.78
2023-04-16T06:44:50.027Z,102445.13
2023-04-16T06:47:39.147Z,102411.84
2023-04-16T06:50:06.651Z,102424.03
2023-04-16T06:52:39.573Z,102412.34
2023-04-16T06:55:11.374Z,102421.19
2023-04-16T06:57:56.014Z,102453.50
2023-04-16T07:00:22.667Z,102459.28
2023-04-16T07:02:59.281Z,102425.66
2023-04-16T07:05:53.657Z,102433.53
2023-04-16T07:08:39.133Z,102440.66
2023-04-16T07:11:20.335Z,102480.31
2023-04-16T07:13:53.206Z,102454.94
2023-04-16T07:16:31.560Z,102437.13
2023-04-16T07:19:33.936Z,102414.06
2023-04-16T07:25:54.591Z,102436.19
2023-04-16T07:28:34.194Z,102430.22
2023-04-16T07:31:08.843Z,102451.63
2023-04-16T07:33:38.915Z,102431.31
2023-04-16T07:36:18.884Z,102466.31
2023-04-16T07:38:49.621Z,102457.88
2023-04-16T07:41:22.435Z,102438.66
2023-04-16T07:43:49.001Z,102476.16
2023-04-16T07:46:20.346Z,102466.53
2023-04-16T07:49:30.590Z,102485.44
2023-04-16T07:52:00.327Z,102450.28
2023-04-16T07:54:29.338Z,102459.91
2023-04-16T07:57:04.096Z,102488.06
2023-04-16T08:00:12.195Z,102493.28
2023-04-16T08:02:42.680Z,102467.00
2023-04-16T08:05:22.834Z,102473.19
2023-04-16T08:14:15.941Z,102494.16
2023-04-16T08:16:55.140Z,102495.16
2023-04-16T08:19:57.682Z,102510.91
2023-04-16T08:23:08.809Z,102510.03
2023-04-16T08:26:00.150Z,102473.09
2023-04-16T08:29:05.964Z,102487.75
2023-04-16T08:32:01.720Z,102479.91
2023-04-16T08:34:28.406Z,102511.53
2023-04-16T08:41:21.338Z,102480.13
2023-04-16T08:44:05.894Z,102480.53
2023-04-16T08:47:12.864Z,102509.41
2023-04-16T08:50:10.709Z,102492.78
2023-04-16T08:56:20.690Z,102509.81
2023-04-16T08:59:23.206Z,102496.56
2023-04-16T09:01:59.218Z,102515.69
2023-04-16T09:07:46.993Z,102518.31
2023-04-16T09:10:16.788Z,102525.41
2023-04-16T09:12:49.446Z,102535.69
2023-04-16T09:15:17.472Z,102519.13
2023-04-16T09:17:48.748Z,102519.88
2023-04-16T09:20:33.535Z,102524.69
2023-04-16T09:23:07.657Z,102536.78
2023-04-16T09:25:41.141Z,102508.59
2023-04-16T09:28:55.457Z,102560.47
2023-04-16T09:34:16.825Z,102510.91
2023-04-16T09:36:43.597Z,102505.75
2023-04-16T09:39:20.091Z,102514.59
2023-04-16T09:41:51.236Z,102560.06
2023-04-16T09:44:17.886Z,102528.66
2023-04-16T09:46:47.434Z,102545.38
2023-04-16T09:52:14.555Z,102528.47
2023-04-16T09:54:52.588Z,102531.31
2023-04-16T09:57:36.824Z,102555.94
2023-04-16T10:00:11.422Z,102553.28
2023-04-16T10:02:47.497Z,102538.53
2023-04-16T10:05:18.862Z,102582.28
2023-04-16T10:07:58.138Z,102531.41
2023-04-16T10:10:30.263Z,102537.72
2023-04-16T10:12:58.040Z,102583.22
2023-04-16T10:15:27.971Z,102542.75
2023-04-16T10:17:59.060Z,102568.38
2023-04-16T10:20:35.524Z,102568.22
2023-04-16T10:23:05.817Z,102535.22
2023-04-16T10:25:50.627Z,102570.47
2023-04-16T10:28:20.765Z,102565.31
2023-04-16T10:30:56.117Z,102523.66
2023-04-16T10:33:39.203Z,102571.19
2023-04-16T10:36:13.721Z,102568.84
2023-04-16T10:39:00.885Z,102563.66
2023-04-16T10:41:27.885Z,102565.34
2023-04-16T10:44:05.987Z,102566.03
2023-04-16T10:46:40.252Z,102558.72
2023-04-16T10:49:26.541Z,102596.56
2023-04-16T10:52:02.304Z,102549.88
2023-04-16T10:54:31.028Z,102543.09
2023-04-16T10:57:04.369Z,102580.03
2023-04-16T10:59:34.913Z,102538.81
2023-04-16T11:02:06.830Z,102575.47
2023-04-16T11:04:35.858Z,102565.06
2023-04-16T11:07:14.096Z,102600.38
2023-04-16T11:10:00.682Z,102600.44
2023-04-16T11:12:44.762Z,102560.16
2023-04-16T11:15:14.299Z,102571.50
2023-04-16T11:17:46.119Z,102569.97
2023-04-16T11:20:20.378Z,102572.38
2023-04-16T11:22:49.125Z,102566.28
2023-04-16T11:25:23.363Z,102605.06
2023-04-16T11:27:53.506Z,102595.72
2023-04-16T11:30:30.471Z,102564.22
2023-04-16T11:32:57.235Z,102583.94
2023-04-16T11:35:23.940Z,102561.91
2023-04-16T11:37:55.553Z,102578.19
2023-04-16T11:40:22.168Z,102571.22
2023-04-16T11:42:50.171Z,102580.50
2023-04-16T11:45:19.193Z,102599.72
2023-04-16T11:47:54.022Z,102609.06
2023-04-16T11:50:20.678Z,102605.25
2023-04-16T11:52:48.179Z,102607.09
2023-04-16T11:55:15.589Z,102606.94
2023-04-16T11:57:42.306Z,102571.47
2023-04-16T12:00:15.386Z,102595.09
2023-04-16T12:02:44.072Z,102609.91
2023-04-16T12:05:34.868Z,102609.47
2023-04-16T12:08:09.776Z,102582.91
2023-04-16T12:10:52.393Z,102596.28
2023-04-16T12:13:41.110Z,102579.00
2023-04-16T12:16:18.752Z,102573.63
2023-04-16T12:19:02.865Z,102591.53
2023-04-16T12:21:43.731Z,102607.56
2023-04-16T12:24:20.937Z,102622.81
2023-04-16T12:26:52.680Z,102600.28
2023-04-16T12:29:24.184Z,102563.59
2023-04-16T12:31:53.110Z,102572.78
2023-04-16T12:34:36.518Z,102561.91
2023-04-16T12:37:12.898Z,102583.69
2023-04-16T12:39:39.901Z,102574.16
2023-04-16T12:42:09.857Z,102596.59
2023-04-16T12:44:36.885Z,102578.53
2023-04-16T12:47:05.640Z,102569.03
2023-04-16T12:49:32.593Z,102570.59
2023-04-16T12:51:59.303Z,102611.66
2023-04-16T12:54:28.994Z,102597.03
2023-04-16T12:56:58.183Z,102555.72
2023-04-16T12:59:24.836Z,102583.63
2023-04-16T13:01:54.344Z,102608.63
2023-04-16T13:04:22.719Z,102580.22
2023-04-16T13:06:54.888Z,102587.00
2023-04-16T13:09:43.646Z,102608.72
2023-04-16T13:12:16.648Z,102612.41
2023-04-16T13:18:04.207Z,102599.97
2023-04-16T13:26:17.057Z,102606.31
2023-04-16T13:29:06.679Z,102576.38
2023-04-16T13:31:54.159Z,102605.44
2023-04-16T13:34:26.077Z,102564.06
2023-04-16T13:39:50.966Z,102617.22
2023-04-16T13:42:36.505Z,102559.53
2023-04-16T13:45:07.917Z,102611.31
2023-04-16T13:47:47.352Z,102581.19
2023-04-16T13:50:19.297Z,102564.69
2023-04-16T13:52:47.175Z,102591.72
2023-04-16T13:55:57.654Z,102560.25
2023-04-16T13:59:15.114Z,102576.13
2023-04-16T14:01:51.064Z,102574.41
2023-04-16T14:04:29.765Z,102598.97
2023-04-16T14:07:43.596Z,102618.28
2023-04-16T14:10:17.713Z,102604.91
2023-04-16T14:12:46.442Z,102588.78
2023-04-16T14:15:22.258Z,102560.00
2023-04-16T14:17:51.799Z,102564.19
2023-04-16T14:20:19.324Z,102587.38
2023-04-16T14:22:46.719Z,102566.03
2023-04-16T14:25:13.500Z,102597.25
2023-04-16T14:27:41.223Z,102554.88
2023-04-16T14:30:08.495Z,102588.28
2023-04-16T14:32:36.261Z,102577.38
2023-04-16T14:35:06.662Z,102566.34
2023-04-16T14:37:38.294Z,102596.16
2023-04-16T14:40:08.559Z,102607.41
2023-04-16T14:42:36.704Z,102609.91
2023-04-16T14:45:07.734Z,102611.31
2023-04-16T14:47:35.138Z,102593.56
2023-04-16T14:50:02.635Z,102604.78
2023-04-16T14:52:31.471Z,102600.28
2023-04-16T14:54:58.194Z,102567.84
2023-04-16T14:57:25.089Z,102609.13
2023-04-16T14:59:51.758Z,102592.00
2023-04-16T15:02:18.586Z,102592.44
2023-04-16T15:04:47.659Z,102609.91
2023-04-16T15:07:14.299Z,102582.38
2023-04-16T15:09:41.313Z,102594.09
2023-04-16T15:12:08.105Z,102588.09
2023-04-16T15:14:43.590Z,102596.63
2023-04-16T15:17:15.521Z,102605.34
2023-04-16T15:19:42.155Z,102608.75
2023-04-16T15:22:11.619Z,102588.88
2023-04-16T15:24:40.784Z,102577.22
2023-04-16T15:27:08.514Z,102592.69
2023-04-16T15:29:39.849Z,102609.19
2023-04-16T15:32:07.103Z,102621.16
2023-04-16T15:34:36.148Z,102584.13
2023-04-16T15:37:05.022Z,102595.69
2023-04-16T15:39:31.652Z,102592.75
2023-04-16T15:42:02.209Z,102614.84
2023-04-16T15:44:31.466Z,102578.84
2023-04-16T15:46:58.275Z,102565.72
2023-04-16T15:49:25.193Z,102607.16
2023-04-16T15:51:52.645Z,102592.47
2023-04-16T15:54:19.379Z,102580.19
2023-04-16T15:56:46.913Z,102562.16
2023-04-16T15:59:13.790Z,102574.34
2023-04-16T16:01:40.932Z,102564.09
2023-04-16T16:04:11.406Z,102594.75
2023-04-16T16:06:38.240Z,102609.53
2023-04-16T16:09:05.024Z,102584.81
2023-04-16T16:11:32.772Z,102596.91
2023-04-16T16:14:04.339Z,102555.66
2023-04-16T16:16:31.749Z,102562.50
2023-04-16T16:18:58.528Z,102566.78
2023-04-16T16:21:25.109Z,102605.28
2023-04-16T16:23:51.746Z,102605.56
2023-04-16T16:26:18.713Z,102618.63
2023-04-16T16:28:46.106Z,102620.78
2023-04-16T16:31:12.839Z,102587.13
2023-04-16T16:33:40.914Z,102601.81
2023-04-16T16:36:10.962Z,102600.88
2023-04-16T16:38:38.310Z,102570.16
2023-04-16T16:41:04.959Z,102614.53
2023-04-16T16:43:31.609Z,102625.69
2023-04-16T16:45:58.235Z,102586.00
2023-04-16T16:48:24.837Z,102595.44
2023-04-16T16:50:51.405Z,102621.56
2023-04-16T16:53:18.155Z,102588.91
2023-04-16T16:55:44.773Z,102589.94
2023-04-16T16:58:11.668Z,102630.66
2023-04-16T17:00:38.295Z,102634.94
2023-04-16T17:03:05.109Z,102608.91
2023-04-16T17:05:31.826Z,102636.03
2023-04-16T17:07:58.704Z,102632.63
2023-04-16T17:10:25.356Z,102604.00
2023-04-16T17:12:52.054Z,102602.31
2023-04-16T17:15:21.457Z,102582.88
2023-04-16T17:17:48.870Z,102637.22
2023-04-16T17:20:15.750Z,102628.16
2023-04-16T17:22:42.666Z,102622.91
2023-04-16T17:25:09.530Z,102633.31
2023-04-16T17:27:36.268Z,102595.47
2023-04-16T17:30:05.437Z,102636.84
2023-04-16T17:32:32.995Z,102625.78
2023-04-16T17:35:01.116Z,102650.13
2023-04-16T17:37:27.845Z,102592.94
2023-04-16T17:39:54.604Z,102648.94
2023-04-16T17:42:21.754Z,102614.66
2023-04-16T17:44:48.387Z,102633.00
2023-04-16T17:47:15.044Z,102658.56
2023-04-16T17:49:41.629Z,102627.66
2023-04-16T17:52:08.214Z,102652.44
2023-04-16T17:54:34.822Z,102657.66
2023-04-16T17:57:02.125Z,102663.13
2023-04-16T17:59:28.913Z,102667.94
2023-04-16T18:01:56.625Z,102665.13
2023-04-16T18:04:23.603Z,102679.69
2023-04-16T18:06:50.527Z,102676.84
2023-04-16T18:09:17.363Z,102679.38
2023-04-16T18:11:43.905Z,102665.22
2023-04-16T18:14:13.268Z,102688.78
2023-04-16T18:16:39.907Z,102678.38
2023-04-16T18:19:06.787Z,102679.13
2023-04-16T18:21:34.006Z,102663.13
2023-04-16T18:24:03.425Z,102692.56
2023-04-16T18:26:30.113Z,102699.63
2023-04-16T18:28:57.078Z,102649.34
2023-04-16T18:31:23.798Z,102659.94
2023-04-16T18:33:57.461Z,102706.75
2023-04-16T18:36:26.707Z,102652.66
2023-04-16T18:39:01.551Z,102688.53
2023-04-16T18:41:41.688Z,102709.09
2023-04-16T18:44:10.710Z,102686.69
2023-04-16T18:46:37.447Z,102713.69
2023-04-16T18:49:04.131Z,102674.78
2023-04-16T18:51:30.821Z,102706.41
2023-04-16T18:53:57.408Z,102706.44
2023-04-16T18:56:24.081Z,102690.41
2023-04-16T18:58:55.466Z,102702.38
2023-04-16T19:01:22.237Z,102725.06
2023-04-16T19:03:48.974Z,102720.78
2023-04-16T19:06:15.658Z,102694.19
2023-04-16T19:08:42.182Z,102700.03
2023-04-16T19:11:08.716Z,102721.06
2023-04-16T19:13:35.338Z,102688.66
2023-04-16T19:16:02.613Z,102715.25
2023-04-16T19:18:29.222Z,102733.72
2023-04-16T19:21:00.442Z,102731.56
2023-04-16T19:23:27.836Z,102732.25
2023-04-16T19:25:56.290Z,102703.13
2023-04-16T19:28:23.884Z,102746.19
2023-04-16T19:30:51.412Z,102716.94
2023-04-16T19:33:18.665Z,102698.66
2023-04-16T19:35:46.265Z,102703.59
2023-04-16T19:38:12.910Z,102731.75
2023-04-16T19:40:46.728Z,102710.47
2023-04-16T19:43:13.689Z,102701.31
2023-04-16T19:45:46.694Z,102705.00
2023-04-16T19:48:13.825Z,102708.34
2023-04-16T19:50:41.926Z,102679.66
2023-04-16T19:53:17.234Z,102691.97
2023-04-16T19:55:43.910Z,102696.53
2023-04-16T19:58:10.733Z,102699.78
2023-04-16T20:00:42.148Z,102710.69
2023-04-16T20:03:09.378Z,102669.91
2023-04-16T20:05:37.304Z,102732.56
2023-04-16T20:08:04.061Z,102699.69
2023-04-16T20:10:31.633Z,102687.78
2023-04-16T20:12:59.916Z,102724.94
2023-04-16T20:15:27.263Z,102703.81
2023-04-16T20:17:55.386Z,102688.69
2023-04-16T20:20:23.701Z,102693.69
2023-04-16T20:22:50.782Z,102713.28
2023-04-16T20:25:20.730Z,102713.44
2023-04-16T20:27:47.374Z,102709.84
2023-04-16T20:30:14.245Z,102709.84
2023-04-16T20:32:40.843Z,102706.94
2023-04-16T20:35:10.619Z,102733.31
2023-04-16T20:37:38.568Z,102733.84
2023-04-16T20:40:13.926Z,102719.81
2023-04-16T20:42:41.318Z,102749.03
2023-04-16T20:45:08.811Z,102724.53
2023-04-16T20:47:35.442Z,102696.41
2023-04-16T20:50:02.891Z,102739.34
2023-04-16T20:52:29.548Z,102738.66
2023-04-16T20:54:56.313Z,102714.56
2023-04-16T20:57:22.929Z,102716.28
2023-04-16T20:59:49.574Z,102678.44
2023-04-16T21:02:16.337Z,102733.63
2023-04-16T21:04:43.188Z,102738.94
2023-04-16T21:07:09.752Z,102740.81
2023-04-16T21:09:36.343Z,102740.69
2023-04-16T21:12:02.937Z,102696.59
2023-04-16T21:14:29.505Z,102700.09
2023-04-16T21:16:56.052Z,102738.78
2023-04-16T21:19:22.630Z,102722.56
2023-04-16T21:21:49.301Z,102721.88
2023-04-16T21:24:15.955Z,102733.06
2023-04-16T21:26:42.534Z,102741.72
2023-04-16T21:29:09.150Z,102683.88
2023-04-16T21:31:36.093Z,102720.66
2023-04-16T21:34:02.727Z,102697.88
2023-04-16T21:36:32.021Z,102727.75
2023-04-16T21:38:58.716Z,102733.91
2023-04-16T21:41:25.300Z,102737.38
2023-04-16T21:43:51.849Z,102710.00
2023-04-16T21:46:18.451Z,102708.25
2023-04-16T21:48:45.090Z,102716.81
2023-04-16T21:51:13.429Z,102743.16
2023-04-16T21:53:40.084Z,102707.41
2023-04-16T21:56:07.178Z,102738.94
2023-04-16T21:58:33.761Z,102740.47
2023-04-16T22:01:00.374Z,102705.91
2023-04-16T22:03:28.188Z,102728.81
2023-04-16T22:06:00.946Z,102724.19
2023-04-16T22:08:31.052Z,102730.75
2023-04-16T22:11:02.273Z,102694.16
2023-04-16T22:13:32.342Z,102722.41
2023-04-16T22:16:02.685Z,102734.81
2023-04-16T22:18:33.077Z,102728.50
2023-04-16T22:21:00.063Z,102729.97
2023-04-16T22:23:26.647Z,102713.81
2023-04-16T22:25:55.493Z,102705.97
2023-04-16T22:28:22.779Z,102737.25
2023-04-16T22:30:49.528Z,102733.19
2023-04-16T22:33:16.316Z,102707.50
2023-04-16T22:35:42.920Z,102724.44
2023-04-16T22:38:10.268Z,102693.72
2023-04-16T22:40:36.839Z,102702.38
2023-04-16T22:43:03.472Z,102736.72
2023-04-16T22:45:30.065Z,102735.84
2023-04-16T22:47:56.774Z,102713.69
2023-04-16T22:50:23.357Z,102729.31
2023-04-16T22:52:49.990Z,102727.63
2023-04-16T22:55:16.793Z,102730.53
2023-04-16T22:57:43.423Z,102742.06
2023-04-16T23:00:15.845Z,102739.38
2023-04-16T23:02:42.956Z,102743.69
2023-04-16T23:05:09.783Z,102730.25
2023-04-16T23:07:36.490Z,102753.09
2023-04-16T23:10:03.234Z,102751.06
2023-04-16T23:12:29.817Z,102733.38
2023-04-16T23:14:56.416Z,102750.06
2023-04-16T23:17:23.110Z,102753.41
2023-04-16T23:19:49.695Z,102736.91
2023-04-16T23:22:16.257Z,102752.41
2023-04-16T23:24:42.759Z,102746.31
2023-04-16T23:27:09.404Z,102747.09
2023-04-16T23:29:36.086Z,102755.19
2023-04-16T23:32:02.686Z,102760.34
2023-04-16T23:34:29.419Z,102758.88
2023-04-16T23:36:56.010Z,102731.56
2023-04-16T23:39:22.566Z,102749.09
2023-04-16T23:41:49.144Z,102761.13
2023-04-16T23:44:16.491Z,102740.03
2023-04-16T23:46:43.038Z,102756.94
2023-04-16T23:49:09.839Z,102757.59
2023-04-16T23:51:37.004Z,102752.53
2023-04-16T23:54:03.637Z,102719.66
2023-04-16T23:56:30.230Z,102737.41
2023-04-16T23:58:56.889Z,102773.47
